MSR799 OEJN-HECA
Flight info
| Callsign | MSR799 |
|---|---|
| Flight time | N/A |
| Altitude | 40000 |
| Route | MIGDA L677 CVO |
| Aircraft | A359/H-SDE2E3GHIJ3J4J5LM1ORWXY/LB1D1 |
Departure
| Time | 2026-04-29 19:36 |
|---|---|
| Airport | King Abdulaziz International Airport (OEJN) |
Arrival
| Time | N/A |
|---|---|
| Airport | Cairo International Airport (HECA) |
| Time | Latitude | Longitude | Altitude | Speed | Heading |
|---|---|---|---|---|---|
| 2026-04-29 19:15 | 21.66125 | 39.16981 | 43 ft | 0 kts | 128° |
| 2026-04-29 19:23 | 21.66130 | 39.16975 | 41 ft | 4 kts | 128° |
| 2026-04-29 19:23 | 21.66147 | 39.16952 | 39 ft | 4 kts | 128° |
| 2026-04-29 19:23 | 21.66163 | 39.16929 | 38 ft | 4 kts | 128° |
| 2026-04-29 19:23 | 21.66180 | 39.16906 | 40 ft | 4 kts | 128° |
| 2026-04-29 19:24 | 21.66184 | 39.16903 | 43 ft | 4 kts | 113° |
| 2026-04-29 19:24 | 21.66197 | 39.16917 | 42 ft | 4 kts | 37° |
| 2026-04-29 19:24 | 21.66215 | 39.16929 | 42 ft | 2 kts | 40° |
| 2026-04-29 19:24 | 21.66229 | 39.16942 | 42 ft | 0 kts | 220° |
| 2026-04-29 19:25 | 21.66230 | 39.16942 | 42 ft | 0 kts | 220° |
| 2026-04-29 19:25 | 21.66231 | 39.16942 | 42 ft | 0 kts | 220° |
| 2026-04-29 19:26 | 21.66232 | 39.16942 | 42 ft | 0 kts | 220° |
| 2026-04-29 19:26 | 21.66233 | 39.16942 | 42 ft | 0 kts | 220° |
| 2026-04-29 19:26 | 21.66233 | 39.16941 | 42 ft | 0 kts | 220° |
| 2026-04-29 19:27 | 21.66234 | 39.16941 | 42 ft | 0 kts | 220° |
| 2026-04-29 19:27 | 21.66235 | 39.16941 | 42 ft | 0 kts | 220° |
| 2026-04-29 19:27 | 21.66235 | 39.16940 | 42 ft | 0 kts | 220° |
| 2026-04-29 19:28 | 21.66236 | 39.16940 | 42 ft | 0 kts | 220° |
| 2026-04-29 19:28 | 21.66236 | 39.16939 | 42 ft | 0 kts | 220° |
| 2026-04-29 19:30 | 21.66235 | 39.16938 | 42 ft | 1 kts | 220° |
| 2026-04-29 19:31 | 21.66219 | 39.16926 | 42 ft | 6 kts | 213° |
| 2026-04-29 19:31 | 21.66163 | 39.16883 | 43 ft | 14 kts | 220° |
| 2026-04-29 19:31 | 21.66138 | 39.16805 | 42 ft | 8 kts | 296° |
| 2026-04-29 19:31 | 21.66182 | 39.16759 | 42 ft | 10 kts | 315° |
| 2026-04-29 19:32 | 21.66197 | 39.16693 | 42 ft | 9 kts | 257° |
| 2026-04-29 19:32 | 21.66185 | 39.16646 | 42 ft | 0 kts | 253° |
| 2026-04-29 19:34 | 21.66180 | 39.16628 | 39 ft | 7 kts | 253° |
| 2026-04-29 19:35 | 21.66154 | 39.16549 | 40 ft | 13 kts | 245° |
| 2026-04-29 19:35 | 21.66166 | 39.16472 | 37 ft | 10 kts | 303° |
| 2026-04-29 19:35 | 21.66222 | 39.16444 | 40 ft | 13 kts | 338° |
| 2026-04-29 19:35 | 21.66578 | 39.16300 | 42 ft | 106 kts | 341° |
| 2026-04-29 19:36 | 21.67574 | 39.15911 | 43 ft | 193 kts | 339° |
| 2026-04-29 19:36 | 21.68775 | 39.15401 | 1413 ft | 169 kts | 339° |
| 2026-04-29 19:36 | 21.69829 | 39.14984 | 3050 ft | 156 kts | 339° |
| 2026-04-29 19:36 | 21.70860 | 39.14596 | 4201 ft | 161 kts | 338° |
| 2026-04-29 19:37 | 21.71958 | 39.14173 | 4954 ft | 174 kts | 337° |
| 2026-04-29 19:37 | 21.72750 | 39.13864 | 5247 ft | 185 kts | 337° |
| 2026-04-29 19:37 | 21.74532 | 39.13160 | 5534 ft | 228 kts | 337° |
| 2026-04-29 19:37 | 21.76123 | 39.12528 | 5484 ft | 262 kts | 338° |
| 2026-04-29 19:38 | 21.77878 | 39.11838 | 5272 ft | 271 kts | 338° |
| 2026-04-29 19:38 | 21.79647 | 39.11145 | 5034 ft | 268 kts | 338° |
| 2026-04-29 19:38 | 21.81393 | 39.10459 | 4793 ft | 266 kts | 338° |
| 2026-04-29 19:38 | 21.83124 | 39.09777 | 4550 ft | 264 kts | 338° |
| 2026-04-29 19:39 | 21.84852 | 39.09094 | 4302 ft | 263 kts | 338° |
| 2026-04-29 19:39 | 21.86549 | 39.08422 | 4060 ft | 263 kts | 339° |
| 2026-04-29 19:39 | 21.88277 | 39.07737 | 3824 ft | 262 kts | 339° |
| 2026-04-29 19:39 | 21.89980 | 39.07064 | 3584 ft | 259 kts | 339° |
| 2026-04-29 19:40 | 21.91642 | 39.06327 | 3343 ft | 256 kts | 335° |
| 2026-04-29 19:40 | 21.93256 | 39.05531 | 3093 ft | 254 kts | 335° |
| 2026-04-29 19:40 | 21.94843 | 39.04749 | 2848 ft | 252 kts | 335° |
| 2026-04-29 19:40 | 21.96446 | 39.03969 | 2631 ft | 252 kts | 336° |
| 2026-04-29 19:41 | 21.98046 | 39.03198 | 2377 ft | 251 kts | 336° |
| 2026-04-29 19:41 | 21.99633 | 39.02437 | 2404 ft | 250 kts | 336° |
| 2026-04-29 19:41 | 22.01246 | 39.01666 | 3005 ft | 255 kts | 336° |
| 2026-04-29 19:41 | 22.02875 | 39.00890 | 3964 ft | 257 kts | 335° |
| 2026-04-29 19:42 | 22.04498 | 39.00115 | 4876 ft | 258 kts | 334° |
| 2026-04-29 19:42 | 22.05615 | 38.99579 | 5444 ft | 262 kts | 334° |
| 2026-04-29 19:42 | 22.07869 | 38.98499 | 6450 ft | 272 kts | 333° |
| 2026-04-29 19:42 | 22.09618 | 38.97661 | 7216 ft | 277 kts | 333° |
| 2026-04-29 19:43 | 22.11398 | 38.96807 | 8078 ft | 281 kts | 333° |
| 2026-04-29 19:43 | 22.13174 | 38.95955 | 8962 ft | 285 kts | 333° |
| 2026-04-29 19:43 | 22.15004 | 38.95077 | 9871 ft | 289 kts | 333° |
| 2026-04-29 19:43 | 22.16885 | 38.94174 | 10495 ft | 305 kts | 333° |
| 2026-04-29 19:44 | 22.18899 | 38.93210 | 10875 ft | 326 kts | 333° |
| 2026-04-29 19:44 | 22.21037 | 38.92185 | 11239 ft | 346 kts | 333° |
| 2026-04-29 19:44 | 22.23260 | 38.91123 | 11763 ft | 357 kts | 333° |
| 2026-04-29 19:44 | 22.25561 | 38.90024 | 12451 ft | 362 kts | 333° |
| 2026-04-29 19:45 | 22.27878 | 38.88923 | 13167 ft | 366 kts | 333° |
| 2026-04-29 19:45 | 22.30218 | 38.87802 | 13885 ft | 369 kts | 333° |
| 2026-04-29 19:45 | 22.32578 | 38.86668 | 14546 ft | 372 kts | 333° |
| 2026-04-29 19:45 | 22.34948 | 38.85529 | 15214 ft | 373 kts | 333° |
| 2026-04-29 19:46 | 22.37327 | 38.84386 | 15878 ft | 375 kts | 333° |
| 2026-04-29 19:46 | 22.39691 | 38.83250 | 16534 ft | 377 kts | 333° |
| 2026-04-29 19:46 | 22.42100 | 38.82093 | 17174 ft | 379 kts | 333° |
| 2026-04-29 19:46 | 22.44525 | 38.80927 | 17821 ft | 381 kts | 333° |
| 2026-04-29 19:47 | 22.46961 | 38.79755 | 18399 ft | 383 kts | 333° |
| 2026-04-29 19:47 | 22.49396 | 38.78583 | 18886 ft | 388 kts | 333° |
| 2026-04-29 19:47 | 22.51881 | 38.77387 | 19352 ft | 393 kts | 333° |
| 2026-04-29 19:47 | 22.54395 | 38.76176 | 19881 ft | 397 kts | 333° |
| 2026-04-29 19:48 | 22.56934 | 38.74953 | 20407 ft | 401 kts | 333° |
| 2026-04-29 19:48 | 22.58630 | 38.74136 | 20792 ft | 404 kts | 332° |
| 2026-04-29 19:48 | 22.62050 | 38.72488 | 21578 ft | 407 kts | 332° |
| 2026-04-29 19:48 | 22.64663 | 38.71229 | 22123 ft | 412 kts | 332° |
| 2026-04-29 19:49 | 22.67323 | 38.69992 | 22671 ft | 417 kts | 333° |
| 2026-04-29 19:49 | 22.70021 | 38.68794 | 23233 ft | 422 kts | 334° |
| 2026-04-29 19:49 | 22.72764 | 38.67597 | 23757 ft | 426 kts | 334° |
| 2026-04-29 19:49 | 22.75497 | 38.66408 | 24267 ft | 429 kts | 333° |
| 2026-04-29 19:50 | 22.78277 | 38.65194 | 24838 ft | 432 kts | 333° |
| 2026-04-29 19:50 | 22.81071 | 38.63966 | 25427 ft | 433 kts | 333° |
| 2026-04-29 19:50 | 22.83880 | 38.62725 | 25956 ft | 437 kts | 332° |
| 2026-04-29 19:50 | 22.86719 | 38.61464 | 26471 ft | 440 kts | 332° |
| 2026-04-29 19:51 | 22.89531 | 38.60213 | 27023 ft | 443 kts | 332° |
| 2026-04-29 19:51 | 22.92409 | 38.58932 | 27570 ft | 446 kts | 332° |
| 2026-04-29 19:51 | 22.95299 | 38.57645 | 28071 ft | 450 kts | 332° |
| 2026-04-29 19:51 | 22.98217 | 38.56344 | 28566 ft | 454 kts | 331° |
| 2026-04-29 19:52 | 23.01118 | 38.55051 | 29046 ft | 457 kts | 331° |
| 2026-04-29 19:52 | 23.04074 | 38.53733 | 29512 ft | 461 kts | 331° |
| 2026-04-29 19:52 | 23.07058 | 38.52403 | 29970 ft | 465 kts | 331° |
| 2026-04-29 19:52 | 23.10077 | 38.51056 | 30356 ft | 468 kts | 331° |
| 2026-04-29 19:53 | 23.13097 | 38.49709 | 30743 ft | 471 kts | 330° |
| 2026-04-29 19:53 | 23.16108 | 38.48365 | 31121 ft | 473 kts | 330° |
| 2026-04-29 19:53 | 23.19176 | 38.46996 | 31490 ft | 476 kts | 330° |
| 2026-04-29 19:53 | 23.22251 | 38.45622 | 31842 ft | 479 kts | 330° |
| 2026-04-29 19:54 | 23.28455 | 38.42848 | 32530 ft | 483 kts | 329° |
| 2026-04-29 19:54 | 23.31533 | 38.41471 | 32853 ft | 485 kts | 329° |
| 2026-04-29 19:54 | 23.34679 | 38.40062 | 33159 ft | 487 kts | 329° |
| 2026-04-29 19:55 | 23.37783 | 38.38672 | 33549 ft | 487 kts | 329° |
| 2026-04-29 19:55 | 23.40915 | 38.37272 | 34011 ft | 485 kts | 329° |
| 2026-04-29 19:55 | 23.44052 | 38.35869 | 34395 ft | 484 kts | 329° |
| 2026-04-29 19:55 | 23.47138 | 38.34487 | 34774 ft | 483 kts | 329° |
| 2026-04-29 19:56 | 23.50249 | 38.33092 | 35160 ft | 482 kts | 329° |
| 2026-04-29 19:56 | 23.53357 | 38.31696 | 35496 ft | 481 kts | 329° |
| 2026-04-29 19:56 | 23.56455 | 38.30303 | 35827 ft | 480 kts | 329° |
| 2026-04-29 19:56 | 23.59519 | 38.28925 | 36153 ft | 480 kts | 329° |
| 2026-04-29 19:57 | 23.62623 | 38.27528 | 36481 ft | 480 kts | 329° |
| 2026-04-29 19:57 | 23.64671 | 38.26606 | 36670 ft | 479 kts | 329° |
| 2026-04-29 19:57 | 23.68793 | 38.24754 | 37112 ft | 478 kts | 329° |
| 2026-04-29 19:57 | 23.71876 | 38.23365 | 37431 ft | 478 kts | 329° |
| 2026-04-29 19:58 | 23.74943 | 38.21981 | 37773 ft | 477 kts | 329° |
| 2026-04-29 19:58 | 23.77978 | 38.20611 | 38141 ft | 475 kts | 329° |
| 2026-04-29 19:58 | 23.81042 | 38.19228 | 38468 ft | 474 kts | 329° |
| 2026-04-29 19:58 | 23.84093 | 38.17851 | 38807 ft | 471 kts | 329° |
| 2026-04-29 19:59 | 23.87117 | 38.16485 | 39063 ft | 470 kts | 329° |
| 2026-04-29 19:59 | 23.90111 | 38.15130 | 39254 ft | 471 kts | 329° |
| 2026-04-29 19:59 | 23.93161 | 38.13747 | 39391 ft | 472 kts | 329° |
| 2026-04-29 19:59 | 23.96193 | 38.12358 | 39574 ft | 470 kts | 328° |
| 2026-04-29 20:00 | 23.99084 | 38.10731 | 39728 ft | 463 kts | 321° |
| 2026-04-29 20:00 | 24.01698 | 38.08787 | 39854 ft | 458 kts | 315° |
| 2026-04-29 20:00 | 24.06662 | 38.04397 | 39860 ft | 455 kts | 311° |
| 2026-04-29 20:01 | 24.11451 | 37.99855 | 39858 ft | 460 kts | 311° |
| 2026-04-29 20:01 | 24.16327 | 37.95213 | 39858 ft | 463 kts | 311° |
| 2026-04-29 20:02 | 24.21177 | 37.90639 | 39853 ft | 462 kts | 311° |
| 2026-04-29 20:02 | 24.25234 | 37.86825 | 39854 ft | 461 kts | 311° |
| 2026-04-29 20:03 | 24.30910 | 37.81487 | 39853 ft | 461 kts | 311° |
| 2026-04-29 20:03 | 24.35787 | 37.76892 | 39856 ft | 461 kts | 311° |
| 2026-04-29 20:04 | 24.40639 | 37.72315 | 39879 ft | 461 kts | 311° |
| 2026-04-29 20:04 | 24.45505 | 37.67721 | 39872 ft | 460 kts | 311° |
| 2026-04-29 20:05 | 24.50360 | 37.63130 | 39873 ft | 459 kts | 311° |
| 2026-04-29 20:05 | 24.55178 | 37.58570 | 39892 ft | 459 kts | 311° |
| 2026-04-29 20:06 | 24.60030 | 37.53972 | 39892 ft | 459 kts | 311° |
| 2026-04-29 20:06 | 24.64855 | 37.49395 | 39894 ft | 459 kts | 311° |
| 2026-04-29 20:07 | 24.69676 | 37.44819 | 39908 ft | 458 kts | 311° |
| 2026-04-29 20:07 | 24.74508 | 37.40228 | 39932 ft | 458 kts | 310° |
| 2026-04-29 20:08 | 24.78523 | 37.36408 | 39908 ft | 458 kts | 310° |
| 2026-04-29 20:08 | 24.84131 | 37.31066 | 39932 ft | 458 kts | 310° |
| 2026-04-29 20:09 | 24.88946 | 37.26476 | 39918 ft | 457 kts | 310° |
| 2026-04-29 20:09 | 24.93734 | 37.21905 | 39934 ft | 457 kts | 310° |
| 2026-04-29 20:10 | 24.98544 | 37.17310 | 39931 ft | 457 kts | 310° |
| 2026-04-29 20:10 | 25.03359 | 37.12704 | 39934 ft | 457 kts | 310° |
| 2026-04-29 20:11 | 25.08139 | 37.08126 | 39966 ft | 457 kts | 310° |
| 2026-04-29 20:11 | 25.12943 | 37.03521 | 39934 ft | 457 kts | 310° |
| 2026-04-29 20:12 | 25.17750 | 36.98908 | 39946 ft | 457 kts | 310° |
| 2026-04-29 20:12 | 25.22529 | 36.94316 | 39935 ft | 457 kts | 310° |
| 2026-04-29 20:13 | 25.26522 | 36.90477 | 39927 ft | 457 kts | 310° |
| 2026-04-29 20:13 | 25.32142 | 36.85068 | 39929 ft | 457 kts | 310° |
| 2026-04-29 20:14 | 25.36910 | 36.80472 | 39922 ft | 457 kts | 310° |
| 2026-04-29 20:14 | 25.41709 | 36.75841 | 39923 ft | 457 kts | 310° |
| 2026-04-29 20:15 | 25.45702 | 36.71984 | 39927 ft | 457 kts | 310° |
| 2026-04-29 20:15 | 25.51291 | 36.66580 | 39919 ft | 457 kts | 310° |
| 2026-04-29 20:16 | 25.55285 | 36.62714 | 39921 ft | 457 kts | 310° |
| 2026-04-29 20:16 | 25.60063 | 36.58085 | 39921 ft | 457 kts | 310° |
| 2026-04-29 20:17 | 25.76065 | 36.42542 | 39912 ft | 457 kts | 310° |
| 2026-04-29 20:17 | 25.95087 | 36.23990 | 39933 ft | 457 kts | 310° |
| 2026-04-29 20:18 | 26.07826 | 36.11521 | 39923 ft | 456 kts | 310° |